createdAt,value
2019-02-04T00:00:42.903Z,102032.91
2019-02-04T00:03:44.206Z,102031.35
2019-02-04T00:06:45.924Z,102033.13
2019-02-04T00:09:47.312Z,102027.52
2019-02-04T00:12:48.563Z,102026.77
2019-02-04T00:15:50.383Z,102025.09
2019-02-04T00:18:51.755Z,102029.95
2019-02-04T00:21:53.099Z,102034.33
2019-02-04T00:24:54.366Z,102032.28
2019-02-04T00:27:55.803Z,102033.70
2019-02-04T00:30:57.035Z,102031.66
2019-02-04T00:33:58.411Z,102035.57
2019-02-04T00:36:59.840Z,102036.50
2019-02-04T00:40:01.323Z,102045.27
2019-02-04T00:43:02.767Z,102052.36
2019-02-04T00:46:04.215Z,102049.75
2019-02-04T00:49:05.985Z,102052.36
2019-02-04T00:52:07.439Z,102051.98
2019-02-04T00:55:09.078Z,102055.99
2019-02-04T00:58:10.442Z,102059.06
2019-02-04T01:01:11.779Z,102057.39
2019-02-04T01:04:13.180Z,102061.30
2019-02-04T01:07:14.599Z,102064.47
2019-02-04T01:10:18.560Z,102067.55
2019-02-04T01:13:20.019Z,102072.86
2019-02-04T01:16:21.399Z,102075.47
2019-02-04T01:19:22.783Z,102075.09
2019-02-04T01:22:24.224Z,102065.58
2019-02-04T01:25:25.543Z,102073.05
2019-02-04T01:28:26.935Z,102075.31
2019-02-04T01:31:28.562Z,102074.94
2019-02-04T01:34:29.935Z,102072.41
2019-02-04T01:37:31.182Z,102068.96
2019-02-04T01:40:32.823Z,102075.95
2019-02-04T01:43:34.199Z,102077.72
2019-02-04T01:46:35.627Z,102080.52
2019-02-04T01:49:37.007Z,102094.41
2019-02-04T01:52:38.563Z,102091.08
2019-02-04T01:55:39.988Z,102091.42
2019-02-04T01:58:41.262Z,102089.28
2019-02-04T02:01:42.692Z,102098.16
2019-02-04T02:04:43.986Z,102096.86
2019-02-04T02:07:45.510Z,102107.39
2019-02-04T02:10:46.838Z,102112.61
2019-02-04T02:13:48.494Z,102120.91
2019-02-04T02:16:49.851Z,102124.07
2019-02-04T02:19:51.222Z,102119.31
2019-02-04T02:22:52.837Z,102121.17
2019-02-04T02:25:54.213Z,102121.17
2019-02-04T02:28:55.587Z,102130.31
2019-02-04T02:31:57.018Z,102126.13
2019-02-04T02:34:58.441Z,102132.28
2019-02-04T02:37:59.843Z,102134.43
2019-02-04T02:41:01.068Z,102129.30
2019-02-04T02:44:02.443Z,102128.92
2019-02-04T02:47:03.987Z,102130.69
2019-02-04T02:50:06.639Z,102135.53
2019-02-04T02:53:08.136Z,102131.23
2019-02-04T02:56:09.975Z,102128.25
2019-02-04T02:59:11.450Z,102132.16
2019-02-04T03:02:12.699Z,102119.23
2019-02-04T03:05:14.293Z,102126.22
2019-02-04T03:08:15.711Z,102131.06
2019-02-04T03:11:17.147Z,102130.22
2019-02-04T03:14:18.491Z,102128.16
2019-02-04T03:17:19.843Z,102132.92
2019-02-04T03:20:21.335Z,102126.94
2019-02-04T03:23:22.776Z,102134.39
2019-02-04T03:26:24.204Z,102132.71
2019-02-04T03:29:25.784Z,102135.33
2019-02-04T03:32:27.324Z,102130.10
2019-02-04T03:35:28.830Z,102128.91
2019-02-04T03:38:30.655Z,102129.00
2019-02-04T03:41:32.398Z,102128.63
2019-02-04T03:44:33.783Z,102133.47
2019-02-04T03:47:35.201Z,102130.85
2019-02-04T03:50:36.479Z,102132.63
2019-02-04T03:53:37.914Z,102125.26
2019-02-04T03:56:39.139Z,102123.11
2019-02-04T03:59:40.519Z,102125.34
2019-02-04T04:02:41.967Z,102122.73
2019-02-04T04:05:43.327Z,102124.13
2019-02-04T04:08:44.836Z,102124.62
2019-02-04T04:11:46.218Z,102132.91
2019-02-04T04:14:47.590Z,102130.77
2019-02-04T04:17:49.014Z,102132.53
2019-02-04T04:20:50.708Z,102131.31
2019-02-04T04:23:52.146Z,102128.78
2019-02-04T04:26:53.370Z,102128.78
2019-02-04T04:29:54.746Z,102133.62
2019-02-04T04:32:56.181Z,102135.77
2019-02-04T04:35:57.552Z,102129.33
2019-02-04T04:38:58.803Z,102138.09
2019-02-04T04:42:00.232Z,102139.51
2019-02-04T04:45:01.729Z,102137.36
2019-02-04T04:48:03.243Z,102131.77
2019-02-04T04:51:04.717Z,102129.16
2019-02-04T04:54:06.270Z,102127.48
2019-02-04T04:57:07.627Z,102127.02
2019-02-04T05:00:12.826Z,102127.06
2019-02-04T05:03:14.427Z,102124.91
2019-02-04T05:06:15.875Z,102124.53
2019-02-04T05:09:17.128Z,102118.48
2019-02-04T05:12:18.351Z,102126.30
2019-02-04T05:15:21.719Z,102128.07
2019-02-04T05:18:23.103Z,102133.38
2019-02-04T05:21:24.479Z,102135.52
2019-02-04T05:24:25.927Z,102129.46
2019-02-04T05:27:27.363Z,102139.06
2019-02-04T05:30:28.739Z,102135.26
2019-02-04T05:33:30.206Z,102140.48
2019-02-04T05:36:31.639Z,102133.58
2019-02-04T05:39:32.991Z,102130.97
2019-02-04T05:42:34.759Z,102134.04
2019-02-04T05:45:36.508Z,102125.37
2019-02-04T05:48:48.789Z,102130.20
2019-02-04T05:51:41.054Z,102125.91
2019-02-04T05:54:42.507Z,102115.94
2019-02-04T05:57:43.835Z,102112.95
2019-02-04T06:00:45.207Z,102116.48
2019-02-04T06:03:46.479Z,102116.95
2019-02-04T06:06:47.892Z,102119.56
2019-02-04T06:09:49.267Z,102127.84
2019-02-04T06:12:50.795Z,102128.31
2019-02-04T06:15:52.262Z,102110.17
2019-02-04T06:19:00.454Z,102120.14
2019-02-04T06:21:57.016Z,102120.14
2019-02-04T06:24:58.267Z,102115.00
2019-02-04T06:28:00.025Z,102108.95
2019-02-04T06:31:01.382Z,102110.25
2019-02-04T06:34:03.169Z,102110.25
2019-02-04T06:37:04.579Z,102108.95
2019-02-04T06:40:07.755Z,102111.17
2019-02-04T06:43:09.129Z,102118.63
2019-02-04T06:46:10.507Z,102113.41
2019-02-04T06:49:12.761Z,102102.59
2019-02-04T06:52:14.095Z,102108.66
2019-02-04T06:55:18.094Z,102101.37
2019-02-04T06:58:19.471Z,102101.84
2019-02-04T07:01:20.838Z,102104.91
2019-02-04T07:04:22.147Z,102098.84
2019-02-04T07:07:23.518Z,102102.41
2019-02-04T07:10:25.515Z,102093.28
2019-02-04T07:13:26.929Z,102092.91
2019-02-04T07:16:28.303Z,102086.47
2019-02-04T07:19:29.635Z,102083.02
2019-02-04T07:22:31.011Z,102088.23
2019-02-04T07:25:32.476Z,102078.73
2019-02-04T07:28:33.686Z,102065.31
2019-02-04T07:31:35.064Z,102070.52
2019-02-04T07:34:36.510Z,102070.52
2019-02-04T07:37:37.843Z,102068.84
2019-02-04T07:40:39.220Z,102075.73
2019-02-04T07:43:40.542Z,102075.83
2019-02-04T07:46:41.916Z,102078.43
2019-02-04T07:49:43.164Z,102076.28
2019-02-04T07:52:44.791Z,102078.89
2019-02-04T07:55:46.179Z,102084.23
2019-02-04T07:58:47.611Z,102092.52
2019-02-04T08:01:48.979Z,102090.75
2019-02-04T08:04:50.384Z,102095.12
2019-02-04T08:07:52.187Z,102092.52
2019-02-04T08:10:53.443Z,102085.61
2019-02-04T08:13:54.766Z,102086.45
2019-02-04T08:16:56.150Z,102082.16
2019-02-04T08:19:57.396Z,102078.25
2019-02-04T08:22:58.726Z,102076.11
2019-02-04T08:26:00.097Z,102064.45
2019-02-04T08:29:01.531Z,102063.99
2019-02-04T08:32:03.106Z,102067.06
2019-02-04T08:35:05.106Z,102066.59
2019-02-04T08:38:06.519Z,102063.23
2019-02-04T08:41:08.294Z,102058.94
2019-02-04T08:44:09.720Z,102065.00
2019-02-04T08:47:22.338Z,102068.53
2019-02-04T08:50:16.391Z,102072.91
2019-02-04T08:53:17.768Z,102074.20
2019-02-04T08:56:19.144Z,102064.70
2019-02-04T08:59:20.572Z,102073.83
2019-02-04T09:02:21.848Z,102071.22
2019-02-04T09:05:23.823Z,102073.48
2019-02-04T09:08:25.339Z,102077.39
2019-02-04T09:11:26.818Z,102076.09
2019-02-04T09:14:28.247Z,102074.03
2019-02-04T09:17:29.635Z,102079.24
2019-02-04T09:20:31.166Z,102081.84
2019-02-04T09:23:32.395Z,102081.94
2019-02-04T09:26:33.772Z,102077.56
2019-02-04T09:29:35.330Z,102077.56
2019-02-04T09:32:36.787Z,102082.77
2019-02-04T09:35:38.235Z,102079.70
2019-02-04T09:38:39.771Z,102090.97
2019-02-04T09:41:41.043Z,102086.69
2019-02-04T09:44:42.467Z,102091.44
2019-02-04T09:47:44.157Z,102082.39
2019-02-04T09:50:47.407Z,102088.06
2019-02-04T09:53:49.378Z,102087.61
2019-02-04T09:56:50.767Z,102091.52
2019-02-04T09:59:52.338Z,102094.51
2019-02-04T10:02:54.086Z,102089.75
2019-02-04T10:05:55.560Z,102085.00
2019-02-04T10:08:56.963Z,102083.31
2019-02-04T10:11:58.334Z,102088.53
2019-02-04T10:14:59.678Z,102089.45
2019-02-04T10:18:01.148Z,102089.83
2019-02-04T10:21:02.601Z,102094.13
2019-02-04T10:24:04.050Z,102079.87
2019-02-04T10:27:05.317Z,102082.86
2019-02-04T10:30:10.605Z,102074.19
2019-02-04T10:33:12.007Z,102071.58
2019-02-04T10:36:13.453Z,102072.89
2019-02-04T10:39:14.674Z,102074.19
2019-02-04T10:42:16.047Z,102066.38
2019-02-04T10:45:17.994Z,102069.36
2019-02-04T10:48:19.386Z,102061.16
2019-02-04T10:51:20.897Z,102058.55
2019-02-04T10:54:22.283Z,102057.24
2019-02-04T10:57:23.638Z,102052.95
2019-02-04T11:00:27.184Z,102056.02
2019-02-04T11:03:28.700Z,102048.66
2019-02-04T11:06:30.135Z,102043.83
2019-02-04T11:09:31.710Z,102047.74
2019-02-04T11:12:33.956Z,102045.13
2019-02-04T11:15:35.396Z,102042.53
2019-02-04T11:18:36.799Z,102038.53
2019-02-04T11:21:38.248Z,102025.58
2019-02-04T11:24:39.646Z,102026.88
2019-02-04T11:27:41.426Z,102024.73
2019-02-04T11:30:54.628Z,102023.90
2019-02-04T11:33:56.015Z,102015.16
2019-02-04T11:36:57.497Z,102005.65
2019-02-04T11:39:58.899Z,102010.40
2019-02-04T11:43:00.326Z,102010.86
2019-02-04T11:46:02.121Z,102009.56
2019-02-04T11:49:03.586Z,102012.16
2019-02-04T11:52:05.077Z,102006.95
2019-02-04T11:55:07.360Z,101995.80
2019-02-04T11:58:08.773Z,101995.80
2019-02-04T12:01:10.198Z,102001.36
2019-02-04T12:04:11.607Z,102002.58
2019-02-04T12:07:13.027Z,101996.98
2019-02-04T12:10:26.419Z,101998.75
2019-02-04T12:13:27.815Z,101997.45
2019-02-04T12:16:29.199Z,101998.29
2019-02-04T12:19:30.490Z,101996.52
2019-02-04T12:22:31.872Z,101995.22
2019-02-04T12:25:33.295Z,101991.77
2019-02-04T12:28:34.670Z,101986.56
2019-02-04T12:31:36.223Z,101985.72
2019-02-04T12:34:37.538Z,101989.63
2019-02-04T12:37:39.339Z,101988.44
2019-02-04T12:40:40.762Z,101989.28
2019-02-04T12:43:42.240Z,101988.33
2019-02-04T12:46:43.603Z,101994.84
2019-02-04T12:49:45.030Z,101989.63
2019-02-04T12:52:46.400Z,101980.50
2019-02-04T12:55:47.829Z,101994.38
2019-02-04T12:58:55.577Z,101988.33
2019-02-04T13:01:52.498Z,101987.22
2019-02-04T13:04:53.748Z,101987.52
2019-02-04T13:07:55.198Z,101984.41
2019-02-04T13:10:56.942Z,101977.09
2019-02-04T13:13:58.317Z,101971.38
2019-02-04T13:16:59.666Z,101977.17
2019-02-04T13:20:01.099Z,101973.17
2019-02-04T13:23:02.691Z,101967.20
2019-02-04T13:26:04.405Z,101962.83
2019-02-04T13:29:05.887Z,101969.15
2019-02-04T13:32:07.138Z,101963.67
2019-02-04T13:35:08.878Z,101959.39
2019-02-04T13:38:10.246Z,101957.04
2019-02-04T13:41:11.985Z,101943.28
2019-02-04T13:44:13.575Z,101953.62
2019-02-04T13:47:15.015Z,101949.80
2019-02-04T13:50:18.663Z,101946.27
2019-02-04T13:53:20.283Z,101944.20
2019-02-04T13:56:21.607Z,101942.53
2019-02-04T13:59:22.980Z,101936.01
2019-02-04T14:02:24.232Z,101931.26
2019-02-04T14:05:26.035Z,101938.99
2019-02-04T14:08:27.461Z,101929.49
2019-02-04T14:11:28.893Z,101925.58
2019-02-04T14:14:30.147Z,101924.74
2019-02-04T14:17:31.396Z,101926.05
2019-02-04T14:20:32.832Z,101916.45
2019-02-04T14:23:34.215Z,101915.16
2019-02-04T14:26:35.628Z,101906.03
2019-02-04T14:29:37.003Z,101905.66
2019-02-04T14:32:38.367Z,101901.74
2019-02-04T14:35:40.208Z,101894.39
2019-02-04T14:38:41.574Z,101887.03
2019-02-04T14:41:43.000Z,101887.03
2019-02-04T14:45:06.667Z,101886.11
2019-02-04T14:48:25.215Z,101877.91
2019-02-04T14:51:52.967Z,101866.93
2019-02-04T14:55:31.304Z,101866.93
2019-02-04T14:58:48.836Z,101864.21
2019-02-04T15:02:38.835Z,101859.17
2019-02-04T15:06:15.024Z,101866.09
2019-02-04T15:10:16.835Z,101864.09
2019-02-04T15:13:48.112Z,101864.17
2019-02-04T15:16:57.328Z,101856.91
2019-02-04T15:20:36.540Z,101855.52
2019-02-04T15:24:35.604Z,101850.13
2019-02-04T15:28:17.776Z,101844.72
2019-02-04T15:31:33.792Z,101849.55
2019-02-04T15:35:06.483Z,101847.88
2019-02-04T15:41:12.694Z,101850.30
2019-02-04T15:45:06.580Z,101863.48
2019-02-04T15:48:23.326Z,101868.51
2019-02-04T15:51:31.481Z,101877.00
2019-02-04T15:54:34.185Z,101869.50
2019-02-04T15:57:35.723Z,101873.27
2019-02-04T16:00:39.196Z,101874.41
2019-02-04T16:03:41.544Z,101874.16
2019-02-04T16:06:48.776Z,101871.08
2019-02-04T16:09:52.785Z,101877.94
2019-02-04T16:12:55.213Z,101879.50
2019-02-04T16:15:56.774Z,101864.78
2019-02-04T16:19:04.281Z,101866.58
2019-02-04T16:22:06.245Z,101865.80
2019-02-04T16:25:11.344Z,101871.70
2019-02-04T16:28:13.736Z,101861.50
2019-02-04T16:31:23.380Z,101853.80
2019-02-04T16:34:24.913Z,101859.67
2019-02-04T16:37:27.425Z,101863.02
2019-02-04T16:40:28.842Z,101859.55
2019-02-04T16:43:38.103Z,101862.02
2019-02-04T16:46:39.553Z,101886.55
2019-02-04T16:49:50.676Z,101875.88
2019-02-04T16:53:09.962Z,101882.16
2019-02-04T16:56:03.265Z,101883.80
2019-02-04T16:59:11.480Z,101882.02
2019-02-04T17:02:14.113Z,101890.85
2019-02-04T17:08:53.480Z,101879.78
2019-02-04T17:12:01.182Z,101852.22
2019-02-04T17:15:17.728Z,101838.23
2019-02-04T17:18:19.389Z,101846.64
2019-02-04T17:21:23.376Z,101855.50
2019-02-04T17:24:29.444Z,101855.48
2019-02-04T17:27:41.570Z,101856.31
2019-02-04T17:30:43.012Z,101849.53
2019-02-04T17:34:04.617Z,101856.28
2019-02-04T17:37:16.715Z,101837.25
2019-02-04T17:40:32.650Z,101849.09
2019-02-04T17:43:34.207Z,101840.63
2019-02-04T17:47:03.121Z,101839.34
2019-02-04T17:50:20.188Z,101849.50
2019-02-04T17:53:34.187Z,101844.81
2019-02-04T17:56:36.215Z,101834.64
2019-02-04T17:59:48.556Z,101838.43
2019-02-04T18:02:50.110Z,101823.23
2019-02-04T18:05:51.469Z,101840.11
2019-02-04T18:08:52.934Z,101839.28
2019-02-04T18:12:12.793Z,101829.16
2019-02-04T18:15:15.715Z,101826.60
2019-02-04T18:18:20.197Z,101823.23
2019-02-04T18:21:27.793Z,101817.30
2019-02-04T18:24:47.393Z,101807.59
2019-02-04T18:27:49.793Z,101806.31
2019-02-04T18:31:01.390Z,101798.23
2019-02-04T18:34:09.044Z,101769.06
2019-02-04T18:37:10.503Z,101759.75
2019-02-04T18:40:13.128Z,101761.45
2019-02-04T18:43:14.723Z,101757.22
2019-02-04T18:46:22.109Z,101747.51
2019-02-04T18:49:30.349Z,101748.80
2019-02-04T18:52:31.791Z,101758.52
2019-02-04T18:55:35.181Z,101754.69
2019-02-04T18:58:43.613Z,101744.55
2019-02-04T19:01:57.119Z,101746.26
2019-02-04T19:04:59.568Z,101744.97
2019-02-04T19:08:00.964Z,101751.73
2019-02-04T19:11:36.150Z,101754.69
2019-02-04T19:14:54.863Z,101751.73
2019-02-04T19:18:07.648Z,101766.48
2019-02-04T19:21:38.315Z,101760.98
2019-02-04T19:24:39.822Z,101782.14
2019-02-04T19:27:50.600Z,101770.25
2019-02-04T19:30:58.925Z,101763.95
2019-02-04T19:34:09.516Z,101770.72
2019-02-04T19:37:35.680Z,101779.17
2019-02-04T19:41:01.973Z,101773.68
2019-02-04T19:44:04.542Z,101776.21
2019-02-04T19:47:12.170Z,101782.10
2019-02-04T19:50:22.303Z,101783.80
2019-02-04T19:53:29.953Z,101782.14
2019-02-04T19:56:31.375Z,101785.93
2019-02-04T19:59:35.397Z,101796.08
2019-02-04T20:02:45.976Z,101783.43
2019-02-04T20:05:59.160Z,101779.64
2019-02-04T20:09:10.419Z,101780.47
2019-02-04T20:12:22.359Z,101784.28
2019-02-04T20:15:45.959Z,101773.72
2019-02-04T20:18:47.642Z,101780.89
2019-02-04T20:21:52.443Z,101789.32
2019-02-04T20:25:03.896Z,101788.07
2019-02-04T20:28:11.261Z,101775.40
2019-02-04T20:31:14.754Z,101775.81
2019-02-04T20:34:26.000Z,101772.45
2019-02-04T20:37:45.917Z,101777.13
2019-02-04T20:40:47.517Z,101785.98
2019-02-04T20:44:07.869Z,101782.58
2019-02-04T20:47:09.392Z,101788.95
2019-02-04T20:50:23.012Z,101778.77
2019-02-04T20:53:27.047Z,101764.42
2019-02-04T20:56:28.390Z,101766.13
2019-02-04T20:59:39.473Z,101772.90
2019-02-04T21:02:56.494Z,101773.77
2019-02-04T21:06:04.881Z,101774.17
2019-02-04T21:09:28.360Z,101772.87
2019-02-04T21:12:35.903Z,101766.13
2019-02-04T21:15:53.920Z,101771.59
2019-02-04T21:18:57.347Z,101771.59
2019-02-04T21:22:03.464Z,101769.92
2019-02-04T21:25:06.958Z,101774.61
2019-02-04T21:28:10.405Z,101772.97
2019-02-04T21:31:17.855Z,101779.38
2019-02-04T21:34:25.499Z,101788.73
2019-02-04T21:37:26.832Z,101788.77
2019-02-04T21:40:34.283Z,101789.66
2019-02-04T21:43:52.742Z,101785.45
2019-02-04T21:46:55.584Z,101789.73
2019-02-04T21:49:59.943Z,101785.50
2019-02-04T21:53:08.049Z,101789.34
2019-02-04T21:56:10.690Z,101787.29
2019-02-04T21:59:12.729Z,101787.73
2019-02-04T22:02:17.169Z,101783.53
2019-02-04T22:05:20.773Z,101782.72
2019-02-04T22:08:34.218Z,101796.71
2019-02-04T22:11:35.720Z,101778.95
2019-02-04T22:14:46.533Z,101790.38
2019-02-04T22:17:56.120Z,101786.16
2019-02-04T22:21:04.629Z,101785.75
2019-02-04T22:24:06.069Z,101781.11
2019-02-04T22:27:07.539Z,101784.92
2019-02-04T22:30:17.722Z,101779.01
2019-02-04T22:33:20.155Z,101780.30
2019-02-04T22:36:23.852Z,101782.41
2019-02-04T22:39:25.457Z,101781.56
2019-02-04T22:42:26.821Z,101772.26
2019-02-04T22:45:31.841Z,101772.69
2019-02-04T22:48:37.844Z,101777.36
2019-02-04T22:52:00.999Z,101763.81
2019-02-04T22:55:11.110Z,101767.61
2019-02-04T22:58:15.836Z,101775.23
2019-02-04T23:01:47.120Z,101776.93
2019-02-04T23:05:05.396Z,101779.05
2019-02-04T23:08:13.288Z,101782.00
2019-02-04T23:11:28.097Z,101778.61
2019-02-04T23:14:31.468Z,101787.50
2019-02-04T23:17:37.851Z,101792.59
2019-02-04T23:20:41.826Z,101812.94
2019-02-04T23:23:47.153Z,101791.75
2019-02-04T23:26:50.477Z,101783.72
2019-02-04T23:29:54.913Z,101790.91
2019-02-04T23:32:56.388Z,101791.34
2019-02-04T23:36:03.700Z,101790.49
2019-02-04T23:39:07.799Z,101792.18
2019-02-04T23:42:11.571Z,101800.23
2019-02-04T23:45:14.291Z,101788.37
2019-02-04T23:48:17.108Z,101798.10
2019-02-04T23:51:21.570Z,101788.78
2019-02-04T23:54:24.863Z,101794.70
2019-02-04T23:57:50.674Z,101797.23
